createdAt,value
2023-05-05T00:00:36.673Z,14.62
2023-05-05T00:02:41.722Z,14.56
2023-05-05T00:04:41.849Z,14.56
2023-05-05T00:06:40.067Z,14.54
2023-05-05T00:08:39.183Z,14.51
2023-05-05T00:10:37.142Z,14.51
2023-05-05T00:12:56.340Z,14.49
2023-05-05T00:14:51.977Z,14.46
2023-05-05T00:16:50.649Z,14.40
2023-05-05T00:18:55.523Z,14.38
2023-05-05T00:21:04.832Z,14.33
2023-05-05T00:23:07.719Z,14.29
2023-05-05T00:25:15.677Z,14.24
2023-05-05T00:27:10.892Z,14.23
2023-05-05T00:29:06.315Z,14.20
2023-05-05T00:31:01.856Z,14.17
2023-05-05T00:33:00.061Z,14.14
2023-05-05T00:34:55.198Z,14.08
2023-05-05T00:36:50.705Z,14.04
2023-05-05T00:38:45.838Z,14.01
2023-05-05T00:40:41.347Z,14.03
2023-05-05T00:42:43.013Z,13.99
2023-05-05T00:44:42.811Z,13.95
2023-05-05T00:46:40.887Z,13.90
2023-05-05T00:48:39.155Z,13.83
2023-05-05T00:50:34.928Z,13.81
2023-05-05T00:52:30.384Z,13.84
2023-05-05T00:54:25.714Z,13.83
2023-05-05T00:56:22.337Z,13.76
2023-05-05T00:58:17.566Z,13.77
2023-05-05T01:00:14.579Z,13.76
2023-05-05T01:02:13.068Z,13.76
2023-05-05T01:04:11.039Z,13.75
2023-05-05T01:06:16.265Z,13.68
2023-05-05T01:08:25.275Z,13.67
2023-05-05T01:10:33.146Z,13.66
2023-05-05T01:12:40.080Z,13.64
2023-05-05T01:14:43.347Z,13.59
2023-05-05T01:16:43.875Z,13.55
2023-05-05T01:18:45.000Z,13.53
2023-05-05T01:20:52.345Z,13.48
2023-05-05T01:22:51.208Z,13.47
2023-05-05T01:24:59.796Z,13.47
2023-05-05T01:27:03.365Z,13.47
2023-05-05T01:29:22.968Z,13.43
2023-05-05T01:31:29.829Z,13.41
2023-05-05T01:33:33.053Z,13.35
2023-05-05T01:35:31.943Z,13.29
2023-05-05T01:37:32.996Z,13.27
2023-05-05T01:39:34.222Z,13.30
2023-05-05T01:41:33.468Z,13.30
2023-05-05T01:43:32.363Z,13.28
2023-05-05T01:45:32.610Z,13.24
2023-05-05T01:47:27.778Z,13.18
2023-05-05T01:49:26.962Z,13.20
2023-05-05T01:51:27.247Z,13.19
2023-05-05T01:53:25.919Z,13.19
2023-05-05T01:55:26.699Z,13.17
2023-05-05T01:57:32.264Z,13.14
2023-05-05T01:59:29.385Z,13.08
2023-05-05T02:01:27.268Z,13.04
2023-05-05T02:03:24.160Z,13.03
2023-05-05T02:05:22.987Z,12.96
2023-05-05T02:07:19.600Z,12.96
2023-05-05T02:09:16.611Z,12.93
2023-05-05T02:11:12.817Z,12.91
2023-05-05T02:13:08.552Z,12.91
2023-05-05T02:15:05.520Z,12.89
2023-05-05T02:17:01.866Z,12.88
2023-05-05T02:18:58.412Z,12.85
2023-05-05T02:20:56.654Z,12.82
2023-05-05T02:22:51.981Z,12.79
2023-05-05T02:24:47.671Z,12.75
2023-05-05T02:26:43.625Z,12.70
2023-05-05T02:28:45.333Z,12.68
2023-05-05T02:30:41.969Z,12.66
2023-05-05T02:32:40.741Z,12.65
2023-05-05T02:34:39.651Z,12.65
2023-05-05T02:36:41.253Z,12.64
2023-05-05T02:38:37.684Z,12.65
2023-05-05T02:40:35.904Z,12.64
2023-05-05T02:42:35.160Z,12.63
2023-05-05T02:44:31.990Z,12.62
2023-05-05T02:46:27.144Z,12.60
2023-05-05T02:48:22.654Z,12.58
2023-05-05T02:50:18.178Z,12.53
2023-05-05T02:52:16.160Z,12.47
2023-05-05T02:54:11.424Z,12.39
2023-05-05T02:56:13.434Z,12.39
2023-05-05T02:58:11.344Z,12.35
2023-05-05T03:00:13.830Z,12.35
2023-05-05T03:02:19.238Z,12.33
2023-05-05T03:04:20.480Z,12.28
2023-05-05T03:06:20.407Z,12.26
2023-05-05T03:08:23.252Z,12.25
2023-05-05T03:10:23.036Z,12.23
2023-05-05T03:12:23.055Z,12.20
2023-05-05T03:14:21.446Z,12.18
2023-05-05T03:16:21.121Z,12.18
2023-05-05T03:18:18.639Z,12.18
2023-05-05T03:20:17.373Z,12.17
2023-05-05T03:22:13.485Z,12.15
2023-05-05T03:24:20.971Z,12.14
2023-05-05T03:26:19.934Z,12.11
2023-05-05T03:28:16.657Z,12.06
2023-05-05T03:30:13.167Z,12.04
2023-05-05T03:32:10.047Z,12.01
2023-05-05T03:34:06.301Z,12.03
2023-05-05T03:36:01.653Z,12.02
2023-05-05T03:37:57.402Z,12.01
2023-05-05T03:39:55.318Z,12.02
2023-05-05T03:41:50.299Z,12.01
2023-05-05T03:43:45.612Z,12.00
2023-05-05T03:45:40.665Z,11.99
2023-05-05T03:47:36.120Z,11.97
2023-05-05T03:49:31.567Z,11.92
2023-05-05T03:51:28.200Z,11.93
2023-05-05T03:53:23.207Z,11.89
2023-05-05T03:55:21.274Z,11.89
2023-05-05T03:57:16.840Z,11.88
2023-05-05T03:59:12.297Z,11.84
2023-05-05T04:01:08.443Z,11.82
2023-05-05T04:03:04.006Z,11.78
2023-05-05T04:04:59.071Z,11.76
2023-05-05T04:06:54.452Z,11.76
2023-05-05T04:08:49.571Z,11.73
2023-05-05T04:10:47.550Z,11.72
2023-05-05T04:12:42.669Z,11.70
2023-05-05T04:14:38.000Z,11.68
2023-05-05T04:16:33.706Z,11.67
2023-05-05T04:18:29.066Z,11.63
2023-05-05T04:20:24.267Z,11.58
2023-05-05T04:22:19.619Z,11.55
2023-05-05T04:24:14.628Z,11.55
2023-05-05T04:26:12.586Z,11.51
2023-05-05T04:28:07.942Z,11.49
2023-05-05T04:30:03.501Z,11.48
2023-05-05T04:31:58.613Z,11.44
2023-05-05T04:33:53.996Z,11.48
2023-05-05T04:35:49.114Z,11.43
2023-05-05T04:37:44.618Z,11.44
2023-05-05T04:39:39.674Z,11.42
2023-05-05T04:41:37.615Z,11.41
2023-05-05T04:43:32.733Z,11.43
2023-05-05T04:45:28.174Z,11.42
2023-05-05T04:47:23.197Z,11.40
2023-05-05T04:49:18.596Z,11.33
2023-05-05T04:51:13.811Z,11.25
2023-05-05T04:53:09.172Z,11.22
2023-05-05T04:55:04.503Z,11.25
2023-05-05T04:57:02.529Z,11.28
2023-05-05T04:58:57.558Z,11.24
2023-05-05T05:00:52.901Z,11.27
2023-05-05T05:02:48.161Z,11.28
2023-05-05T05:04:43.666Z,11.24
2023-05-05T05:06:38.809Z,11.21
2023-05-05T05:08:34.159Z,11.26
2023-05-05T05:10:29.207Z,11.27
2023-05-05T05:12:27.230Z,11.32
2023-05-05T05:14:22.235Z,11.28
2023-05-05T05:16:17.944Z,11.29
2023-05-05T05:18:13.045Z,11.26
2023-05-05T05:20:10.351Z,11.14
2023-05-05T05:22:05.891Z,11.05
2023-05-05T05:24:01.377Z,11.08
2023-05-05T05:25:56.518Z,11.12
2023-05-05T05:28:06.170Z,11.16
2023-05-05T05:30:04.461Z,11.19
2023-05-05T05:32:00.144Z,11.13
2023-05-05T05:33:56.269Z,11.14
2023-05-05T05:35:52.053Z,11.11
2023-05-05T05:37:47.841Z,11.16
2023-05-05T05:39:43.865Z,11.15
2023-05-05T05:41:39.253Z,11.16
2023-05-05T05:43:37.447Z,11.23
2023-05-05T05:45:32.872Z,11.27
2023-05-05T05:47:28.683Z,11.28
2023-05-05T05:49:24.025Z,11.31
2023-05-05T05:51:19.695Z,11.33
2023-05-05T05:53:15.000Z,11.36
2023-05-05T05:55:12.115Z,11.36
2023-05-05T05:57:09.179Z,11.35
2023-05-05T05:59:08.264Z,11.32
2023-05-05T06:01:05.075Z,11.30
2023-05-05T06:03:00.699Z,11.28
2023-05-05T06:04:56.112Z,11.30
2023-05-05T06:06:51.758Z,11.38
2023-05-05T06:08:47.001Z,11.45
2023-05-05T06:10:42.706Z,11.45
2023-05-05T06:12:37.731Z,11.48
2023-05-05T06:14:35.718Z,11.42
2023-05-05T06:16:30.919Z,11.43
2023-05-05T06:18:26.493Z,11.42
2023-05-05T06:20:21.555Z,11.42
2023-05-05T06:22:16.928Z,11.51
2023-05-05T06:24:12.129Z,11.56
2023-05-05T06:26:07.516Z,11.64
2023-05-05T06:28:02.704Z,11.71
2023-05-05T06:30:00.843Z,11.71
2023-05-05T06:31:55.918Z,11.70
2023-05-05T06:33:51.278Z,11.77
2023-05-05T06:35:47.286Z,11.77
2023-05-05T06:37:42.686Z,11.78
2023-05-05T06:39:37.662Z,11.83
2023-05-05T06:41:32.983Z,11.84
2023-05-05T06:43:28.659Z,11.86
2023-05-05T06:45:27.026Z,11.90
2023-05-05T06:47:22.243Z,12.01
2023-05-05T06:49:17.583Z,12.12
2023-05-05T06:51:12.858Z,12.17
2023-05-05T06:53:08.398Z,12.18
2023-05-05T06:55:04.027Z,12.20
2023-05-05T06:56:59.803Z,12.21
2023-05-05T06:58:54.926Z,12.21
2023-05-05T07:00:54.213Z,12.24
2023-05-05T07:02:49.976Z,12.29
2023-05-05T07:04:46.960Z,12.36
2023-05-05T07:06:41.974Z,12.41
2023-05-05T07:08:37.404Z,12.44
2023-05-05T07:10:32.496Z,12.36
2023-05-05T07:12:27.816Z,12.33
2023-05-05T07:14:24.395Z,12.35
2023-05-05T07:16:22.584Z,12.38
2023-05-05T07:18:18.499Z,12.41
2023-05-05T07:20:14.513Z,12.43
2023-05-05T07:22:09.545Z,12.48
2023-05-05T07:24:05.615Z,12.52
2023-05-05T07:26:01.000Z,12.56
2023-05-05T07:27:56.528Z,12.57
2023-05-05T07:29:51.884Z,12.55
2023-05-05T07:31:49.845Z,12.51
2023-05-05T07:33:44.880Z,12.52
2023-05-05T07:35:40.249Z,12.58
2023-05-05T07:37:35.504Z,12.64
2023-05-05T07:39:30.966Z,12.71
2023-05-05T07:41:27.075Z,12.78
2023-05-05T07:43:22.516Z,12.90
2023-05-05T07:45:17.538Z,12.98
2023-05-05T07:47:15.514Z,13.01
2023-05-05T07:49:10.528Z,13.07
2023-05-05T07:51:06.023Z,13.04
2023-05-05T07:53:10.768Z,13.05
2023-05-05T07:55:10.354Z,13.11
2023-05-05T07:57:05.508Z,13.13
2023-05-05T07:59:01.130Z,13.16
2023-05-05T08:00:56.550Z,13.22
2023-05-05T08:02:55.080Z,13.33
2023-05-05T08:04:50.473Z,13.41
2023-05-05T08:06:46.473Z,13.49
2023-05-05T08:08:41.874Z,13.56
2023-05-05T08:10:37.334Z,13.60
2023-05-05T08:12:32.412Z,13.67
2023-05-05T08:14:27.813Z,13.72
2023-05-05T08:16:22.924Z,13.87
2023-05-05T08:18:20.913Z,13.93
2023-05-05T08:20:16.382Z,13.99
2023-05-05T08:22:11.673Z,14.10
2023-05-05T08:24:07.054Z,14.22
2023-05-05T08:26:02.427Z,14.31
2023-05-05T08:27:57.630Z,14.37
2023-05-05T08:29:52.983Z,14.42
2023-05-05T08:31:48.048Z,14.52
2023-05-05T08:33:46.037Z,14.56
2023-05-05T08:35:41.143Z,14.65
2023-05-05T08:37:36.532Z,14.73
2023-05-05T08:39:31.562Z,14.84
2023-05-05T08:41:27.386Z,14.91
2023-05-05T08:43:24.060Z,14.99
2023-05-05T08:45:19.478Z,15.07
2023-05-05T08:47:17.880Z,15.19
2023-05-05T08:49:18.105Z,15.22
2023-05-05T08:51:19.610Z,15.33
2023-05-05T08:53:19.882Z,15.40
2023-05-05T08:55:26.711Z,15.48
2023-05-05T08:57:28.330Z,15.56
2023-05-05T08:59:28.500Z,15.65
2023-05-05T09:01:24.878Z,15.70
2023-05-05T09:03:20.969Z,15.75
2023-05-05T09:05:18.916Z,15.80
2023-05-05T09:07:14.696Z,15.95
2023-05-05T09:09:09.710Z,16.01
2023-05-05T09:11:05.683Z,16.10
2023-05-05T09:13:01.124Z,16.19
2023-05-05T09:14:59.084Z,16.34
2023-05-05T09:16:54.526Z,16.43
2023-05-05T09:18:49.974Z,16.53
2023-05-05T09:20:47.690Z,16.63
2023-05-05T09:22:44.131Z,16.61
2023-05-05T09:24:39.236Z,16.63
2023-05-05T09:26:36.268Z,16.78
2023-05-05T09:28:31.388Z,16.86
2023-05-05T09:30:28.135Z,16.90
2023-05-05T09:32:23.222Z,17.05
2023-05-05T09:34:19.681Z,17.08
2023-05-05T09:36:17.312Z,17.12
2023-05-05T09:38:15.860Z,17.24
2023-05-05T09:40:12.206Z,17.27
2023-05-05T09:42:08.636Z,17.26
2023-05-05T09:44:03.739Z,17.26
2023-05-05T09:46:09.248Z,17.32
2023-05-05T09:48:04.491Z,17.34
2023-05-05T09:50:01.359Z,17.44
2023-05-05T09:52:00.555Z,17.61
2023-05-05T09:53:56.151Z,17.79
2023-05-05T09:55:58.392Z,17.92
2023-05-05T09:57:54.195Z,18.04
2023-05-05T09:59:59.211Z,18.23
2023-05-05T10:01:55.077Z,18.17
2023-05-05T10:03:54.273Z,18.21
2023-05-05T10:05:52.051Z,18.39
2023-05-05T10:07:50.700Z,18.47
2023-05-05T10:09:58.658Z,18.46
2023-05-05T10:11:54.349Z,18.60
2023-05-05T10:13:50.485Z,18.75
2023-05-05T10:15:48.620Z,18.87
2023-05-05T10:19:48.660Z,19.09
2023-05-05T10:21:49.080Z,19.31
2023-05-05T10:23:52.563Z,19.33
2023-05-05T10:25:55.511Z,19.20
2023-05-05T10:27:55.927Z,19.27
2023-05-05T10:29:57.894Z,19.41
2023-05-05T10:31:56.875Z,19.40
2023-05-05T10:39:53.254Z,19.90
2023-05-05T10:41:49.876Z,20.03
2023-05-05T10:43:46.061Z,20.10
2023-05-05T10:45:43.324Z,20.06
2023-05-05T10:47:40.462Z,20.25
2023-05-05T10:49:45.786Z,20.25
2023-05-05T10:52:12.502Z,20.57
2023-05-05T10:54:16.415Z,20.53
2023-05-05T10:56:25.409Z,20.72
2023-05-05T10:58:46.862Z,20.73
2023-05-05T11:00:53.266Z,20.86
2023-05-05T11:02:48.678Z,21.12
2023-05-05T11:04:43.853Z,21.12
2023-05-05T11:06:39.171Z,21.28
2023-05-05T11:08:35.665Z,21.25
2023-05-05T11:10:47.072Z,21.23
2023-05-05T11:13:14.824Z,21.36
2023-05-05T11:15:40.346Z,21.44
2023-05-05T11:17:48.702Z,21.58
2023-05-05T11:19:52.333Z,21.84
2023-05-05T11:22:03.360Z,22.09
2023-05-05T11:24:29.656Z,22.16
2023-05-05T11:26:53.064Z,22.10
2023-05-05T11:29:02.479Z,22.00
2023-05-05T11:31:22.220Z,22.20
2023-05-05T11:33:28.543Z,22.41
2023-05-05T11:35:23.636Z,22.68
2023-05-05T11:37:19.375Z,22.86
2023-05-05T11:39:25.819Z,22.58
2023-05-05T11:41:33.577Z,22.56
2023-05-05T11:43:28.734Z,22.42
2023-05-05T11:45:26.589Z,22.35
2023-05-05T11:47:32.778Z,22.49
2023-05-05T11:49:36.276Z,22.69
2023-05-05T11:51:31.690Z,22.79
2023-05-05T11:53:27.130Z,22.84
2023-05-05T11:55:24.026Z,22.84
2023-05-05T11:57:21.698Z,23.14
2023-05-05T11:59:16.770Z,23.46
2023-05-05T12:01:13.267Z,23.45
2023-05-05T12:03:11.134Z,23.20
2023-05-05T12:05:07.554Z,22.84
2023-05-05T12:07:03.082Z,22.82
2023-05-05T12:08:58.683Z,22.95
2023-05-05T12:10:53.769Z,22.68
2023-05-05T12:12:49.586Z,22.83
2023-05-05T12:14:51.779Z,22.95
2023-05-05T12:16:57.291Z,23.06
2023-05-05T12:19:06.710Z,23.26
2023-05-05T12:21:02.056Z,23.57
2023-05-05T12:23:03.340Z,23.69
2023-05-05T12:24:59.454Z,23.91
2023-05-05T12:26:54.544Z,23.89
2023-05-05T12:28:50.918Z,23.92
2023-05-05T12:30:46.503Z,23.88
2023-05-05T12:32:42.453Z,24.24
2023-05-05T12:34:40.164Z,24.48
2023-05-05T12:36:36.372Z,24.41
2023-05-05T12:38:31.408Z,24.59
2023-05-05T12:40:53.880Z,24.66
2023-05-05T12:42:49.371Z,24.49
2023-05-05T12:44:46.786Z,24.53
2023-05-05T12:46:47.572Z,24.90
2023-05-05T12:48:47.237Z,24.70
2023-05-05T12:50:46.038Z,24.68
2023-05-05T12:52:46.242Z,24.71
2023-05-05T12:54:55.038Z,24.85
2023-05-05T12:56:51.364Z,24.95
2023-05-05T12:58:50.223Z,24.49
2023-05-05T13:00:46.051Z,24.54
2023-05-05T13:02:41.957Z,24.38
2023-05-05T13:04:50.906Z,24.60
2023-05-05T13:06:49.826Z,24.71
2023-05-05T13:08:46.140Z,24.63
2023-05-05T13:10:43.311Z,24.71
2023-05-05T13:12:39.038Z,24.95
2023-05-05T13:14:34.996Z,25.12
2023-05-05T13:16:30.787Z,25.42
2023-05-05T13:18:26.391Z,25.64
2023-05-05T13:20:22.258Z,25.33
2023-05-05T13:22:20.310Z,25.15
2023-05-05T13:26:15.738Z,25.07
2023-05-05T13:28:11.486Z,25.40
2023-05-05T13:30:07.562Z,25.49
2023-05-05T13:32:03.743Z,25.55
2023-05-05T13:33:59.129Z,25.53
2023-05-05T13:35:54.585Z,25.86
2023-05-05T13:37:52.218Z,25.59
2023-05-05T13:39:47.628Z,25.67
2023-05-05T13:41:44.833Z,25.63
2023-05-05T13:43:40.221Z,25.86
2023-05-05T13:45:35.329Z,26.08
2023-05-05T13:47:30.716Z,25.69
2023-05-05T13:49:25.828Z,25.72
2023-05-05T13:51:21.166Z,25.52
2023-05-05T13:53:19.122Z,25.33
2023-05-05T13:55:14.525Z,25.72
2023-05-05T13:57:11.220Z,25.89
2023-05-05T13:59:06.551Z,26.01
2023-05-05T14:01:01.566Z,26.22
2023-05-05T14:02:57.134Z,25.77
2023-05-05T14:04:52.193Z,25.77
2023-05-05T14:06:47.576Z,26.03
2023-05-05T14:08:46.214Z,26.13
2023-05-05T14:10:43.376Z,26.33
2023-05-05T14:12:39.477Z,25.79
2023-05-05T14:14:35.469Z,25.71
2023-05-05T14:16:30.540Z,25.70
2023-05-05T14:18:25.947Z,26.00
2023-05-05T14:20:20.951Z,26.07
2023-05-05T14:22:16.568Z,26.16
2023-05-05T14:24:14.167Z,26.34
2023-05-05T14:26:09.716Z,26.36
2023-05-05T14:28:04.896Z,25.88
2023-05-05T14:30:00.329Z,25.76
2023-05-05T14:31:55.615Z,25.86
2023-05-05T14:33:51.114Z,26.30
2023-05-05T14:35:46.230Z,26.31
2023-05-05T14:37:41.657Z,26.34
2023-05-05T14:39:39.285Z,26.30
2023-05-05T14:41:34.752Z,25.99
2023-05-05T14:43:29.789Z,25.57
2023-05-05T14:45:25.155Z,25.64
2023-05-05T14:47:20.126Z,25.72
2023-05-05T14:49:15.513Z,25.84
2023-05-05T14:51:10.559Z,25.52
2023-05-05T14:53:05.955Z,25.21
2023-05-05T14:55:03.562Z,25.36
2023-05-05T14:56:59.504Z,25.11
2023-05-05T14:58:54.759Z,25.08
2023-05-05T15:00:50.230Z,25.11
2023-05-05T15:04:40.854Z,24.87
2023-05-05T15:06:36.550Z,24.87
2023-05-05T15:08:31.981Z,25.03
2023-05-05T15:10:29.680Z,25.28
2023-05-05T15:12:26.141Z,25.22
2023-05-05T15:14:21.325Z,25.09
2023-05-05T15:16:16.834Z,24.94
2023-05-05T15:18:11.990Z,25.11
2023-05-05T15:20:09.146Z,25.21
2023-05-05T15:22:04.618Z,25.07
2023-05-05T15:24:00.117Z,25.01
2023-05-05T15:25:58.036Z,24.99
2023-05-05T15:27:53.470Z,25.26
2023-05-05T15:29:48.716Z,25.31
2023-05-05T15:31:44.472Z,25.19
2023-05-05T15:33:40.755Z,25.05
2023-05-05T15:35:36.394Z,24.61
2023-05-05T15:37:31.803Z,24.63
2023-05-05T15:39:27.146Z,24.52
2023-05-05T15:41:27.187Z,24.44
2023-05-05T15:43:22.956Z,24.73
2023-05-05T15:45:18.768Z,24.84
2023-05-05T15:47:17.230Z,24.62
2023-05-05T15:49:12.521Z,24.63
2023-05-05T15:51:07.911Z,24.80
2023-05-05T15:53:02.972Z,24.76
2023-05-05T15:54:58.458Z,24.68
2023-05-05T15:56:56.200Z,24.38
2023-05-05T15:58:51.725Z,24.26
2023-05-05T16:00:46.736Z,24.23
2023-05-05T16:02:42.234Z,24.21
2023-05-05T16:04:37.332Z,24.09
2023-05-05T16:06:32.718Z,23.90
2023-05-05T16:08:27.960Z,23.68
2023-05-05T16:10:23.653Z,23.52
2023-05-05T16:12:22.282Z,23.51
2023-05-05T16:14:17.624Z,23.33
2023-05-05T16:16:12.622Z,23.15
2023-05-05T16:18:08.329Z,23.04
2023-05-05T16:20:03.884Z,23.00
2023-05-05T16:21:59.686Z,23.00
2023-05-05T16:23:54.793Z,22.97
2023-05-05T16:25:50.137Z,23.18
2023-05-05T16:27:47.807Z,23.26
2023-05-05T16:29:43.197Z,23.31
2023-05-05T16:31:38.531Z,23.25
2023-05-05T16:33:36.159Z,23.16
2023-05-05T16:35:31.170Z,22.90
2023-05-05T16:37:26.544Z,22.82
2023-05-05T16:39:21.848Z,22.81
2023-05-05T16:41:17.314Z,22.64
2023-05-05T16:43:14.978Z,22.43
2023-05-05T16:45:11.815Z,22.33
2023-05-05T16:47:07.041Z,22.27
2023-05-05T16:49:02.654Z,22.41
2023-05-05T16:51:01.534Z,22.48
2023-05-05T16:52:57.091Z,22.30
2023-05-05T16:54:55.689Z,22.30
2023-05-05T16:56:52.377Z,22.27
2023-05-05T16:58:50.108Z,22.21
2023-05-05T17:00:46.933Z,22.10
2023-05-05T17:02:41.995Z,22.00
2023-05-05T17:04:37.368Z,21.67
2023-05-05T17:06:34.750Z,21.60
2023-05-05T17:08:30.096Z,21.60
2023-05-05T17:10:25.380Z,21.52
2023-05-05T17:12:20.690Z,21.43
2023-05-05T17:14:18.614Z,21.29
2023-05-05T17:16:13.943Z,21.33
2023-05-05T17:18:10.525Z,21.43
2023-05-05T17:20:05.935Z,21.21
2023-05-05T17:22:00.959Z,21.37
2023-05-05T17:23:56.274Z,21.35
2023-05-05T17:25:51.635Z,21.18
2023-05-05T17:27:47.049Z,21.25
2023-05-05T17:29:44.638Z,21.14
2023-05-05T17:31:40.080Z,21.10
2023-05-05T17:33:35.136Z,21.05
2023-05-05T17:35:30.479Z,20.94
2023-05-05T17:37:25.474Z,20.91
2023-05-05T17:39:21.127Z,20.91
2023-05-05T17:41:16.713Z,21.01
2023-05-05T17:43:12.425Z,20.94
2023-05-05T17:45:12.176Z,20.66
2023-05-05T17:47:08.610Z,20.60
2023-05-05T17:49:04.004Z,20.56
2023-05-05T17:50:59.689Z,20.49
2023-05-05T17:52:55.332Z,20.44
2023-05-05T17:54:51.462Z,20.60
2023-05-05T17:56:47.024Z,20.43
2023-05-05T17:58:47.722Z,20.29
2023-05-05T18:00:49.549Z,20.34
2023-05-05T18:02:51.812Z,20.33
2023-05-05T18:04:51.055Z,20.38
2023-05-05T18:06:47.782Z,20.20
2023-05-05T18:08:43.080Z,20.06
2023-05-05T18:10:38.464Z,20.04
2023-05-05T18:12:33.934Z,19.94
2023-05-05T18:14:30.522Z,19.90
2023-05-05T18:16:28.738Z,19.84
2023-05-05T18:18:25.118Z,19.76
2023-05-05T18:20:20.306Z,19.76
2023-05-05T18:22:17.153Z,19.81
2023-05-05T18:26:13.832Z,19.65
2023-05-05T18:28:09.881Z,19.62
2023-05-05T18:30:05.871Z,19.67
2023-05-05T18:32:03.641Z,19.66
2023-05-05T18:33:59.009Z,19.67
2023-05-05T18:35:54.015Z,19.66
2023-05-05T18:37:49.915Z,19.61
2023-05-05T18:39:46.056Z,19.50
2023-05-05T18:41:41.788Z,19.40
2023-05-05T18:43:39.227Z,19.43
2023-05-05T18:45:34.850Z,19.39
2023-05-05T18:47:33.867Z,19.32
2023-05-05T18:49:31.332Z,19.30
2023-05-05T18:51:27.992Z,19.33
2023-05-05T18:53:23.476Z,19.44
2023-05-05T18:55:18.949Z,19.35
2023-05-05T18:57:14.333Z,19.31
2023-05-05T18:59:11.186Z,19.27
2023-05-05T19:01:06.580Z,19.31
2023-05-05T19:03:04.550Z,19.31
2023-05-05T19:05:01.621Z,19.32
2023-05-05T19:06:57.231Z,19.30
2023-05-05T19:08:52.662Z,19.17
2023-05-05T19:10:55.416Z,19.11
2023-05-05T19:13:05.824Z,19.09
2023-05-05T19:15:01.719Z,19.06
2023-05-05T19:16:59.360Z,18.98
2023-05-05T19:19:00.211Z,18.80
2023-05-05T19:20:55.415Z,18.85
2023-05-05T19:22:51.099Z,18.68
2023-05-05T19:24:46.059Z,18.50
2023-05-05T19:26:41.568Z,18.39
2023-05-05T19:28:36.645Z,18.45
2023-05-05T19:30:32.622Z,18.36
2023-05-05T19:32:27.748Z,18.42
2023-05-05T19:34:26.167Z,18.40
2023-05-05T19:36:21.531Z,18.34
2023-05-05T19:38:17.242Z,18.11
2023-05-05T19:40:13.664Z,18.03
2023-05-05T19:42:10.114Z,18.04
2023-05-05T19:44:05.299Z,18.09
2023-05-05T19:46:01.899Z,17.93
2023-05-05T19:47:58.586Z,17.95
2023-05-05T19:50:00.775Z,17.97
2023-05-05T19:52:06.401Z,17.88
2023-05-05T19:54:02.276Z,17.82
2023-05-05T19:55:58.003Z,17.88
2023-05-05T19:57:54.758Z,17.78
2023-05-05T19:59:51.979Z,17.85
2023-05-05T20:01:52.473Z,17.90
2023-05-05T20:03:54.018Z,17.78
2023-05-05T20:05:55.473Z,17.66
2023-05-05T20:07:55.206Z,17.70
2023-05-05T20:09:58.564Z,17.70
2023-05-05T20:12:03.960Z,17.65
2023-05-05T20:14:24.647Z,17.68
2023-05-05T20:19:28.556Z,17.50
2023-05-05T20:21:38.262Z,17.36
2023-05-05T20:23:48.265Z,17.44
2023-05-05T20:25:53.946Z,17.43
2023-05-05T20:28:00.764Z,17.40
2023-05-05T20:30:05.161Z,17.27
2023-05-05T20:32:03.713Z,17.08
2023-05-05T20:33:58.951Z,17.01
2023-05-05T20:35:54.336Z,17.00
2023-05-05T20:37:52.027Z,17.01
2023-05-05T20:39:47.477Z,16.89
2023-05-05T20:41:42.499Z,16.91
2023-05-05T20:43:38.785Z,16.82
2023-05-05T20:45:37.256Z,16.87
2023-05-05T20:47:32.829Z,16.91
2023-05-05T20:49:27.850Z,16.79
2023-05-05T20:51:23.193Z,16.79
2023-05-05T20:53:23.300Z,16.83
2023-05-05T20:55:18.758Z,16.92
2023-05-05T20:57:13.795Z,16.91
2023-05-05T20:59:09.146Z,16.73
2023-05-05T21:01:04.183Z,16.66
2023-05-05T21:02:59.663Z,16.69
2023-05-05T21:04:54.653Z,16.69
2023-05-05T21:06:50.021Z,16.64
2023-05-05T21:08:47.878Z,16.69
2023-05-05T21:10:43.324Z,16.70
2023-05-05T21:12:38.393Z,16.73
2023-05-05T21:14:33.954Z,16.81
2023-05-05T21:16:28.952Z,16.84
2023-05-05T21:18:25.856Z,16.77
2023-05-05T21:20:21.620Z,16.68
2023-05-05T21:22:17.029Z,16.69
2023-05-05T21:24:15.667Z,16.69
2023-05-05T21:26:11.087Z,16.70
2023-05-05T21:28:06.287Z,16.69
2023-05-05T21:30:01.650Z,16.66
2023-05-05T21:31:56.736Z,16.62
2023-05-05T21:33:52.239Z,16.55
2023-05-05T21:35:47.230Z,16.52
2023-05-05T21:37:42.899Z,16.44
2023-05-05T21:39:40.758Z,16.38
2023-05-05T21:41:36.218Z,16.34
2023-05-05T21:43:31.392Z,16.25
2023-05-05T21:45:27.034Z,16.18
2023-05-05T21:47:22.063Z,16.20
2023-05-05T21:49:18.559Z,16.05
2023-05-05T21:51:13.553Z,15.98
2023-05-05T21:53:08.869Z,16.00
2023-05-05T21:55:07.096Z,16.02
2023-05-05T21:57:02.955Z,15.96
2023-05-05T21:58:58.010Z,15.86
2023-05-05T22:00:53.687Z,15.76
2023-05-05T22:02:48.848Z,15.81
2023-05-05T22:04:46.160Z,15.86
2023-05-05T22:06:43.446Z,15.80
2023-05-05T22:08:38.785Z,15.69
2023-05-05T22:10:36.301Z,15.75
2023-05-05T22:12:31.981Z,15.79
2023-05-05T22:14:27.451Z,15.61
2023-05-05T22:16:23.126Z,15.57
2023-05-05T22:18:18.759Z,15.52
2023-05-05T22:20:15.083Z,15.44
2023-05-05T22:22:10.553Z,15.37
2023-05-05T22:24:07.292Z,15.23
2023-05-05T22:26:05.513Z,15.28
2023-05-05T22:28:01.843Z,15.34
2023-05-05T22:30:07.753Z,15.45
2023-05-05T22:32:14.388Z,15.46
2023-05-05T22:34:09.491Z,15.46
2023-05-05T22:36:04.857Z,15.47
2023-05-05T22:37:59.986Z,15.43
2023-05-05T22:39:55.661Z,15.34
2023-05-05T22:41:53.774Z,15.35
2023-05-05T22:43:53.568Z,15.33
2023-05-05T22:45:48.713Z,15.35
2023-05-05T22:47:45.449Z,15.34
2023-05-05T22:49:42.284Z,15.27
2023-05-05T22:51:40.348Z,15.29
2023-05-05T22:53:37.122Z,15.32
2023-05-05T22:55:34.761Z,15.26
2023-05-05T22:57:33.135Z,15.19
2023-05-05T22:59:28.707Z,15.14
2023-05-05T23:01:24.268Z,15.14
2023-05-05T23:03:20.675Z,15.10
2023-05-05T23:05:16.246Z,15.07
2023-05-05T23:07:11.644Z,14.99
2023-05-05T23:09:07.725Z,14.98
2023-05-05T23:11:03.249Z,14.99
2023-05-05T23:13:01.870Z,14.97
2023-05-05T23:14:58.283Z,14.96
2023-05-05T23:16:53.407Z,14.95
2023-05-05T23:18:48.905Z,14.87
2023-05-05T23:20:45.455Z,14.82
2023-05-05T23:22:41.345Z,14.84
2023-05-05T23:24:37.217Z,14.80
2023-05-05T23:26:33.028Z,14.70
2023-05-05T23:28:31.427Z,14.68
2023-05-05T23:30:27.152Z,14.60
2023-05-05T23:32:23.530Z,14.49
2023-05-05T23:34:18.859Z,14.39
2023-05-05T23:36:14.516Z,14.14
2023-05-05T23:38:10.150Z,13.95
2023-05-05T23:40:05.551Z,14.02
2023-05-05T23:42:01.702Z,14.08
2023-05-05T23:43:59.497Z,14.08
2023-05-05T23:45:55.203Z,14.10
2023-05-05T23:47:50.621Z,14.08
2023-05-05T23:49:46.034Z,14.06
2023-05-05T23:51:41.094Z,14.10
2023-05-05T23:53:41.225Z,14.14
2023-05-05T23:55:36.408Z,14.18
2023-05-05T23:57:32.228Z,14.11
2023-05-05T23:59:30.182Z,14.02
